Time;durP1;ratioP1;P1;durP2;ratioP2;P2;SDS_P1;SDS_P2;PMS_P1;PMS_P2;Temp;Humidity;BMP_temperature;BMP_pressure;BME280_temperature;BME280_humidity;BME280_pressure;Samples;Min_cycle;Max_cycle;Signal;HPM_P1;HPM_P2
2022/08/06 00:00:37;;;;;;;3.40;3.10;;;;;;;;;;5080023;28;24987;-46
2022/08/06 00:03:03;;;;;;;3.50;3.20;;;;;;;;;;5077376;28;24484;-46
2022/08/06 00:05:28;;;;;;;3.30;3.10;;;;;;;;;;5076600;28;24418;-47
2022/08/06 00:07:56;;;;;;;3.00;2.80;;;;;;;;;;5084790;28;24539;-46
2022/08/06 00:10:21;;;;;;;3.00;2.80;;;;;;;;;;5087852;28;24469;-46
2022/08/06 00:12:46;;;;;;;2.63;2.42;;;;;;;;;;5069896;28;24976;-46
2022/08/06 00:15:12;;;;;;;3.00;2.80;;;;;;;;;;5067131;28;24415;-46
2022/08/06 00:17:38;;;;;;;3.27;3.07;;;;;;;;;;5071343;28;24778;-46
2022/08/06 00:20:03;;;;;;;2.80;2.70;;;;;;;;;;5067929;28;24479;-46
2022/08/06 00:22:28;;;;;;;3.17;2.97;;;;;;;;;;5073745;28;24509;-47
2022/08/06 00:24:53;;;;;;;2.80;2.57;;;;;;;;;;5081273;28;24858;-45
2022/08/06 00:27:19;;;;;;;3.15;2.95;;;;;;;;;;5083359;28;24499;-46
2022/08/06 00:29:44;;;;;;;4.20;3.90;;;;;;;;;;5070249;28;24402;-46
2022/08/06 00:32:09;;;;;;;3.70;3.50;;;;;;;;;;5075841;28;24461;-46
2022/08/06 00:34:34;;;;;;;4.40;4.00;;;;;;;;;;5070127;28;24528;-46
2022/08/06 00:36:59;;;;;;;4.10;3.80;;;;;;;;;;5080844;28;25059;-46
2022/08/06 00:39:25;;;;;;;3.70;3.40;;;;;;;;;;5070028;28;24422;-45
2022/08/06 00:41:50;;;;;;;3.15;2.92;;;;;;;;;;5069734;28;24956;-46
2022/08/06 00:44:15;;;;;;;3.50;3.30;;;;;;;;;;5087391;28;24421;-46
2022/08/06 00:46:41;;;;;;;3.70;3.40;;;;;;;;;;5070265;28;24419;-46
2022/08/06 00:49:06;;;;;;;3.60;3.30;;;;;;;;;;5078338;28;25023;-45
2022/08/06 00:51:34;;;;;;;3.60;3.40;;;;;;;;;;5076916;28;24488;-47
2022/08/06 00:53:59;;;;;;;3.58;3.30;;;;;;;;;;5082736;28;24410;-47
2022/08/06 00:56:25;;;;;;;4.50;4.20;;;;;;;;;;5070141;28;24861;-46
2022/08/06 00:58:50;;;;;;;3.60;3.30;;;;;;;;;;5082211;28;24409;-44
2022/08/06 01:01:15;;;;;;;4.00;3.70;;;;;;;;;;5083345;28;24445;-45
2022/08/06 01:03:40;;;;;;;3.90;3.70;;;;;;;;;;5087021;28;24436;-45
2022/08/06 01:06:05;;;;;;;3.80;3.60;;;;;;;;;;5075808;28;24918;-45
2022/08/06 01:08:30;;;;;;;4.27;3.90;;;;;;;;;;5083066;28;24577;-44
2022/08/06 01:10:55;;;;;;;3.83;3.63;;;;;;;;;;5070323;28;24877;-46
2022/08/06 01:13:21;;;;;;;4.05;3.75;;;;;;;;;;5076109;28;24516;-46
2022/08/06 01:15:51;;;;;;;4.00;3.70;;;;;;;;;;5080117;28;24436;-46
2022/08/06 01:18:21;;;;;;;4.70;4.40;;;;;;;;;;5073569;28;24437;-46
2022/08/06 01:20:51;;;;;;;4.63;4.22;;;;;;;;;;5084574;28;24483;-46
2022/08/06 01:23:35;;;;;;;3.97;3.70;;;;;;;;;;5083473;28;24845;-45
2022/08/06 01:26:18;;;;;;;4.53;4.13;;;;;;;;;;5067522;28;24865;-46
2022/08/06 01:28:50;;;;;;;4.40;4.10;;;;;;;;;;5081370;28;24411;-46
2022/08/06 01:31:34;;;;;;;5.10;4.70;;;;;;;;;;5080296;28;24422;-46
2022/08/06 01:34:02;;;;;;;4.40;4.10;;;;;;;;;;5075642;28;24502;-46
2022/08/06 01:36:32;;;;;;;4.63;4.22;;;;;;;;;;5077039;28;25044;-46
2022/08/06 01:38:59;;;;;;;5.00;4.50;;;;;;;;;;5071291;28;24471;-45
2022/08/06 01:41:42;;;;;;;4.50;4.20;;;;;;;;;;5081036;28;25008;-45
2022/08/06 01:44:11;;;;;;;4.60;4.30;;;;;;;;;;5078813;28;25061;-46
2022/08/06 01:46:37;;;;;;;4.78;4.47;;;;;;;;;;5073175;28;24428;-46
2022/08/06 01:49:03;;;;;;;3.80;3.60;;;;;;;;;;5070288;28;24472;-46
2022/08/06 01:51:30;;;;;;;4.37;3.97;;;;;;;;;;5081055;28;24414;-45
2022/08/06 01:53:55;;;;;;;4.55;4.15;;;;;;;;;;5082855;28;24525;-45
2022/08/06 01:56:21;;;;;;;4.63;4.33;;;;;;;;;;5065759;28;24490;-45
2022/08/06 01:58:49;;;;;;;3.90;3.70;;;;;;;;;;5078583;28;24536;-45
2022/08/06 02:01:16;;;;;;;4.67;4.37;;;;;;;;;;5078141;28;24509;-45
2022/08/06 02:03:49;;;;;;;4.78;4.38;;;;;;;;;;5082149;28;24505;-45
2022/08/06 02:06:16;;;;;;;4.72;4.32;;;;;;;;;;5065946;28;24403;-46
2022/08/06 02:08:42;;;;;;;4.47;4.10;;;;;;;;;;5081079;28;25023;-46
2022/08/06 02:11:09;;;;;;;4.50;4.20;;;;;;;;;;5076167;28;24429;-46
2022/08/06 02:13:35;;;;;;;5.00;4.70;;;;;;;;;;5082899;28;24431;-45
2022/08/06 02:16:02;;;;;;;5.30;4.90;;;;;;;;;;5078475;28;24426;-44
2022/08/06 02:18:29;;;;;;;4.90;4.60;;;;;;;;;;5073320;28;24419;-45
2022/08/06 02:20:57;;;;;;;5.10;4.70;;;;;;;;;;5067431;28;24418;-46
2022/08/06 02:23:24;;;;;;;5.55;5.15;;;;;;;;;;5081357;28;24425;-46
2022/08/06 02:25:51;;;;;;;4.80;4.50;;;;;;;;;;5069874;28;24421;-45
2022/08/06 02:28:18;;;;;;;5.90;5.50;;;;;;;;;;5076308;28;24824;-45
2022/08/06 02:30:44;;;;;;;5.20;4.70;;;;;;;;;;5069511;28;24429;-46
2022/08/06 02:33:10;;;;;;;4.75;4.45;;;;;;;;;;5074396;28;24435;-45
2022/08/06 02:35:39;;;;;;;4.50;4.20;;;;;;;;;;5076082;28;24430;-45
2022/08/06 02:38:08;;;;;;;5.28;4.88;;;;;;;;;;5080576;28;24777;-46
2022/08/06 02:40:35;;;;;;;5.00;4.50;;;;;;;;;;5073152;28;24456;-46
2022/08/06 02:43:03;;;;;;;4.68;4.28;;;;;;;;;;5069885;28;24417;-46
2022/08/06 02:45:35;;;;;;;4.40;4.10;;;;;;;;;;5071258;28;24430;-46
2022/08/06 02:48:08;;;;;;;4.00;3.70;;;;;;;;;;5067938;28;24435;-47
2022/08/06 02:50:35;;;;;;;4.38;3.97;;;;;;;;;;5071281;28;24415;-47
2022/08/06 02:53:08;;;;;;;3.95;3.70;;;;;;;;;;5088478;28;24446;-47
2022/08/06 02:55:35;;;;;;;4.13;3.83;;;;;;;;;;5081670;28;24780;-47
2022/08/06 02:58:11;;;;;;;3.70;3.50;;;;;;;;;;5085485;28;24497;-46
2022/08/06 03:00:38;;;;;;;3.80;3.50;;;;;;;;;;5082619;28;24769;-45
2022/08/06 03:03:04;;;;;;;3.13;2.83;;;;;;;;;;5068645;28;24513;-46
2022/08/06 03:05:29;;;;;;;3.50;3.30;;;;;;;;;;5082770;28;24563;-46
2022/08/06 03:07:55;;;;;;;3.40;3.20;;;;;;;;;;5084931;28;24991;-46
2022/08/06 03:10:23;;;;;;;3.10;2.80;;;;;;;;;;5084466;28;24986;-46
2022/08/06 03:12:51;;;;;;;2.70;2.50;;;;;;;;;;5077133;28;24468;-46
2022/08/06 03:15:17;;;;;;;3.00;2.80;;;;;;;;;;5069097;28;24414;-46
2022/08/06 03:17:42;;;;;;;2.97;2.78;;;;;;;;;;5080012;28;24449;-45
2022/08/06 03:20:08;;;;;;;2.80;2.60;;;;;;;;;;5086461;28;24747;-46
2022/08/06 03:22:34;;;;;;;2.80;2.60;;;;;;;;;;5076135;28;24421;-45
2022/08/06 03:24:59;;;;;;;2.43;2.33;;;;;;;;;;5088764;28;25003;-45
2022/08/06 03:27:25;;;;;;;2.65;2.45;;;;;;;;;;5082705;28;24534;-47
2022/08/06 03:29:51;;;;;;;3.20;3.00;;;;;;;;;;5088859;28;24750;-46
2022/08/06 03:32:16;;;;;;;3.17;2.97;;;;;;;;;;5073432;28;24606;-46
2022/08/06 03:34:42;;;;;;;2.63;2.50;;;;;;;;;;5076140;28;24476;-46
2022/08/06 03:37:07;;;;;;;3.00;2.80;;;;;;;;;;5072050;28;25780;-47
2022/08/06 03:39:34;;;;;;;2.60;2.50;;;;;;;;;;5082773;28;24464;-46
2022/08/06 03:41:59;;;;;;;2.40;2.20;;;;;;;;;;5068236;28;25021;-46
2022/08/06 03:44:24;;;;;;;2.20;2.10;;;;;;;;;;5073108;28;24538;-46
2022/08/06 03:46:58;;;;;;;2.70;2.50;;;;;;;;;;5070884;28;24437;-46
2022/08/06 03:49:25;;;;;;;2.30;2.10;;;;;;;;;;5077483;28;24801;-45
2022/08/06 03:51:53;;;;;;;2.20;2.10;;;;;;;;;;5070234;28;24464;-46
2022/08/06 03:54:19;;;;;;;2.30;2.20;;;;;;;;;;5086496;28;24514;-46
2022/08/06 03:56:45;;;;;;;2.20;2.10;;;;;;;;;;5082925;28;24477;-46
2022/08/06 03:59:12;;;;;;;2.33;2.22;;;;;;;;;;5072478;28;24450;-46
2022/08/06 04:01:40;;;;;;;2.10;2.00;;;;;;;;;;5074476;28;24422;-46
2022/08/06 04:04:05;;;;;;;2.00;1.90;;;;;;;;;;5081739;28;24474;-45
2022/08/06 04:06:31;;;;;;;1.80;1.70;;;;;;;;;;5082203;28;24782;-46
2022/08/06 04:08:58;;;;;;;2.00;1.90;;;;;;;;;;5081967;28;24475;-46
2022/08/06 04:11:23;;;;;;;1.70;1.60;;;;;;;;;;5070988;28;24415;-46
2022/08/06 04:13:49;;;;;;;2.50;1.60;;;;;;;;;;5086746;28;24956;-45
2022/08/06 04:16:15;;;;;;;2.00;1.80;;;;;;;;;;5079077;28;24426;-44
2022/08/06 04:18:41;;;;;;;1.60;1.50;;;;;;;;;;5069840;28;24952;-45
2022/08/06 04:21:08;;;;;;;1.80;1.70;;;;;;;;;;5072271;28;24411;-46
2022/08/06 04:23:34;;;;;;;1.80;1.70;;;;;;;;;;5076765;28;24418;-45
2022/08/06 04:26:01;;;;;;;1.97;1.87;;;;;;;;;;5088031;28;24393;-46
2022/08/06 04:28:27;;;;;;;1.50;1.40;;;;;;;;;;5084597;28;24429;-46
2022/08/06 04:30:53;;;;;;;1.65;1.55;;;;;;;;;;5082821;28;24414;-46
2022/08/06 04:33:19;;;;;;;1.40;1.30;;;;;;;;;;5081384;28;24563;-46
2022/08/06 04:35:45;;;;;;;1.30;1.30;;;;;;;;;;5071154;28;24999;-46
2022/08/06 04:38:10;;;;;;;1.60;1.50;;;;;;;;;;5083438;28;24425;-46
2022/08/06 04:40:37;;;;;;;1.50;1.40;;;;;;;;;;5072066;28;24450;-46
2022/08/06 04:43:04;;;;;;;1.50;1.40;;;;;;;;;;5079909;28;24792;-46
2022/08/06 04:45:29;;;;;;;1.40;1.30;;;;;;;;;;5078679;28;24475;-45
2022/08/06 04:47:55;;;;;;;1.10;1.10;;;;;;;;;;5078049;28;24943;-46
2022/08/06 04:50:20;;;;;;;1.50;1.40;;;;;;;;;;5075387;28;24410;-46
2022/08/06 04:52:45;;;;;;;2.60;1.30;;;;;;;;;;5081671;28;24462;-45
2022/08/06 04:55:11;;;;;;;1.48;1.38;;;;;;;;;;5076093;28;24489;-46
2022/08/06 04:57:36;;;;;;;1.10;1.10;;;;;;;;;;5087923;28;24940;-46
2022/08/06 05:00:02;;;;;;;1.40;1.00;;;;;;;;;;5087664;28;24391;-46
2022/08/06 05:02:27;;;;;;;1.00;1.00;;;;;;;;;;5087800;28;24444;-46
2022/08/06 05:04:55;;;;;;;1.30;1.10;;;;;;;;;;5087545;28;25145;-46
2022/08/06 05:07:20;;;;;;;1.00;1.00;;;;;;;;;;5087938;28;24398;-46
2022/08/06 05:09:45;;;;;;;1.20;1.10;;;;;;;;;;5087745;28;24396;-46
2022/08/06 05:12:17;;;;;;;1.30;1.00;;;;;;;;;;5075120;28;24790;-46
2022/08/06 05:14:45;;;;;;;1.50;1.13;;;;;;;;;;5085983;28;24394;-45
2022/08/06 05:17:13;;;;;;;1.10;1.00;;;;;;;;;;5082133;28;24406;-45
2022/08/06 05:19:41;;;;;;;1.20;1.00;;;;;;;;;;5067226;28;24394;-46
2022/08/06 05:22:08;;;;;;;1.20;1.10;;;;;;;;;;5067013;28;24406;-46
2022/08/06 05:24:33;;;;;;;1.00;0.90;;;;;;;;;;5066961;28;24418;-47
2022/08/06 05:26:59;;;;;;;0.60;0.60;;;;;;;;;;5067004;28;24831;-47
2022/08/06 05:29:24;;;;;;;0.77;0.77;;;;;;;;;;5074210;28;24759;-46
2022/08/06 05:31:49;;;;;;;1.37;0.73;;;;;;;;;;5066908;28;24411;-46
2022/08/06 05:34:14;;;;;;;0.90;0.90;;;;;;;;;;5066777;28;24434;-46
2022/08/06 05:36:40;;;;;;;0.77;0.70;;;;;;;;;;5067050;28;24417;-44
2022/08/06 05:39:06;;;;;;;0.70;0.70;;;;;;;;;;5064759;28;24433;-45
2022/08/06 05:41:31;;;;;;;0.70;0.70;;;;;;;;;;5072660;28;24437;-44
2022/08/06 05:43:58;;;;;;;0.83;0.70;;;;;;;;;;5065740;28;24422;-46
2022/08/06 05:46:23;;;;;;;0.98;0.60;;;;;;;;;;5065270;28;24471;-46
2022/08/06 05:49:09;;;;;;;1.40;0.90;;;;;;;;;;5065295;28;24944;-45
2022/08/06 05:51:48;;;;;;;0.90;0.70;;;;;;;;;;5064383;28;24411;-45
2022/08/06 05:54:32;;;;;;;0.80;0.70;;;;;;;;;;5073022;28;24991;-45
2022/08/06 05:57:04;;;;;;;1.70;0.80;;;;;;;;;;5066516;28;24426;-46
2022/08/06 05:59:31;;;;;;;1.77;0.77;;;;;;;;;;5067247;28;24967;-46
2022/08/06 06:01:56;;;;;;;1.20;0.70;;;;;;;;;;5071685;28;25026;-45
2022/08/06 06:04:23;;;;;;;1.00;0.80;;;;;;;;;;5065699;28;24423;-45
2022/08/06 06:06:48;;;;;;;0.70;0.70;;;;;;;;;;5074853;28;24430;-45
2022/08/06 06:09:14;;;;;;;1.13;0.82;;;;;;;;;;5069479;28;24564;-46
2022/08/06 06:11:40;;;;;;;1.30;0.83;;;;;;;;;;5067234;28;24491;-45
2022/08/06 06:14:09;;;;;;;1.42;0.90;;;;;;;;;;5080057;28;24564;-44
2022/08/06 06:16:54;;;;;;;1.07;0.90;;;;;;;;;;5079569;28;24474;-46
2022/08/06 06:19:34;;;;;;;1.48;0.80;;;;;;;;;;5072579;28;24398;-46
2022/08/06 06:22:22;;;;;;;1.55;0.90;;;;;;;;;;5070088;28;24431;-45
2022/08/06 06:24:52;;;;;;;1.17;0.90;;;;;;;;;;5082039;28;24589;-46
2022/08/06 06:27:22;;;;;;;0.70;0.70;;;;;;;;;;5073495;28;24545;-46
2022/08/06 06:30:07;;;;;;;1.10;0.95;;;;;;;;;;5076544;28;24872;-47
2022/08/06 06:32:38;;;;;;;1.10;0.90;;;;;;;;;;5072349;28;24508;-46
2022/08/06 06:35:17;;;;;;;1.73;0.90;;;;;;;;;;5080289;28;25031;-47
2022/08/06 06:37:55;;;;;;;0.70;0.70;;;;;;;;;;5081617;28;24430;-45
2022/08/06 06:40:21;;;;;;;1.27;0.88;;;;;;;;;;5081748;28;24426;-45
2022/08/06 06:42:49;;;;;;;0.90;0.90;;;;;;;;;;5072888;28;24454;-45
2022/08/06 06:45:16;;;;;;;1.13;0.90;;;;;;;;;;5079266;28;24413;-46
2022/08/06 06:47:52;;;;;;;1.45;1.00;;;;;;;;;;5087291;28;24456;-46
2022/08/06 06:50:21;;;;;;;0.70;0.70;;;;;;;;;;5076607;28;24970;-45
2022/08/06 06:52:49;;;;;;;1.70;1.00;;;;;;;;;;5085067;28;24441;-45
2022/08/06 06:55:18;;;;;;;0.80;0.80;;;;;;;;;;5087600;28;25015;-46
2022/08/06 06:57:46;;;;;;;1.20;1.00;;;;;;;;;;5089902;28;24489;-43
2022/08/06 07:00:11;;;;;;;1.50;1.00;;;;;;;;;;5083372;28;24506;-45
2022/08/06 07:02:40;;;;;;;1.10;1.00;;;;;;;;;;5080426;28;25419;-45
2022/08/06 07:05:06;;;;;;;1.00;0.93;;;;;;;;;;5083402;28;24426;-44
2022/08/06 07:07:32;;;;;;;1.10;1.00;;;;;;;;;;5072287;28;25033;-44
2022/08/06 07:09:58;;;;;;;1.20;0.80;;;;;;;;;;5078819;28;24419;-44
2022/08/06 07:12:25;;;;;;;1.17;1.00;;;;;;;;;;5069768;28;24840;-44
2022/08/06 07:14:52;;;;;;;0.98;0.90;;;;;;;;;;5082838;28;25030;-45
2022/08/06 07:17:18;;;;;;;2.80;1.00;;;;;;;;;;5074294;28;24426;-46
2022/08/06 07:19:45;;;;;;;1.10;0.98;;;;;;;;;;5083133;28;24414;-45
2022/08/06 07:22:11;;;;;;;1.50;0.83;;;;;;;;;;5078461;28;24984;-45
2022/08/06 07:24:37;;;;;;;1.10;1.00;;;;;;;;;;5083436;28;24409;-45
2022/08/06 07:27:02;;;;;;;1.50;0.87;;;;;;;;;;5084875;28;24520;-45
2022/08/06 07:29:28;;;;;;;1.60;0.73;;;;;;;;;;5071141;28;24989;-45
2022/08/06 07:31:54;;;;;;;2.30;0.90;;;;;;;;;;5068379;28;24459;-46
2022/08/06 07:34:20;;;;;;;1.50;1.05;;;;;;;;;;5066878;28;24494;-46
2022/08/06 07:36:47;;;;;;;1.50;0.90;;;;;;;;;;5068751;28;24403;-46
2022/08/06 07:39:15;;;;;;;1.00;0.90;;;;;;;;;;5068531;28;25016;-45
2022/08/06 07:41:41;;;;;;;1.60;1.20;;;;;;;;;;5068921;28;24402;-46
2022/08/06 07:44:06;;;;;;;1.70;1.10;;;;;;;;;;5068385;28;24375;-45
2022/08/06 07:46:37;;;;;;;1.85;0.80;;;;;;;;;;5068528;28;24464;-46
2022/08/06 07:49:04;;;;;;;1.40;1.10;;;;;;;;;;5068430;28;24460;-46
2022/08/06 07:51:31;;;;;;;1.50;1.00;;;;;;;;;;5075115;28;24428;-46
2022/08/06 07:53:57;;;;;;;1.70;1.60;;;;;;;;;;5088457;28;24448;-46
2022/08/06 07:56:23;;;;;;;1.10;0.97;;;;;;;;;;5088628;28;24386;-46
2022/08/06 07:58:49;;;;;;;2.10;1.10;;;;;;;;;;5088461;28;24390;-45
2022/08/06 08:01:15;;;;;;;2.20;0.90;;;;;;;;;;5088888;28;24434;-45
2022/08/06 08:06:25;;;;;;;1.45;1.08;;;;;;;;;;5086962;28;24603;-45
2022/08/06 08:08:52;;;;;;;1.10;0.90;;;;;;;;;;5088537;28;24402;-46
2022/08/06 08:11:17;;;;;;;0.98;0.80;;;;;;;;;;5088064;28;24405;-46
2022/08/06 08:13:42;;;;;;;1.48;1.00;;;;;;;;;;5088516;28;24418;-46
2022/08/06 08:16:11;;;;;;;0.90;0.90;;;;;;;;;;5088342;28;24401;-46
2022/08/06 08:18:38;;;;;;;1.10;1.00;;;;;;;;;;5088452;28;24387;-45
2022/08/06 08:21:03;;;;;;;0.90;0.80;;;;;;;;;;5088107;28;24390;-45
2022/08/06 08:23:32;;;;;;;1.10;0.90;;;;;;;;;;5088080;28;24936;-45
2022/08/06 08:25:59;;;;;;;1.20;0.90;;;;;;;;;;5087539;28;24390;-45
2022/08/06 08:28:24;;;;;;;1.70;0.90;;;;;;;;;;5088269;28;24489;-45
2022/08/06 08:30:50;;;;;;;1.33;0.70;;;;;;;;;;5088019;28;24465;-45
2022/08/06 08:33:15;;;;;;;1.23;0.80;;;;;;;;;;5087934;28;24533;-45
2022/08/06 08:35:41;;;;;;;0.80;0.80;;;;;;;;;;5087941;28;24826;-45
2022/08/06 08:38:06;;;;;;;1.50;1.00;;;;;;;;;;5087809;28;25253;-47
2022/08/06 08:40:33;;;;;;;1.60;0.90;;;;;;;;;;5087621;28;24386;-46
2022/08/06 08:43:01;;;;;;;0.80;0.80;;;;;;;;;;5087759;28;24391;-45
2022/08/06 08:45:26;;;;;;;2.47;1.00;;;;;;;;;;5087631;28;24406;-45
2022/08/06 08:47:52;;;;;;;1.10;1.00;;;;;;;;;;5087226;28;24769;-46
2022/08/06 08:50:23;;;;;;;1.60;0.80;;;;;;;;;;5087348;28;24396;-45
2022/08/06 08:52:49;;;;;;;1.40;0.93;;;;;;;;;;5087580;28;24430;-46
2022/08/06 08:55:15;;;;;;;1.98;0.90;;;;;;;;;;5087374;28;24410;-45
2022/08/06 08:57:41;;;;;;;0.73;0.73;;;;;;;;;;5087886;28;24397;-47
2022/08/06 09:00:07;;;;;;;1.60;0.80;;;;;;;;;;5087538;28;24797;-45
2022/08/06 09:02:32;;;;;;;1.30;1.20;;;;;;;;;;5087558;28;24851;-46
2022/08/06 09:04:58;;;;;;;1.27;0.90;;;;;;;;;;5084809;28;24968;-46
2022/08/06 09:07:23;;;;;;;0.80;0.80;;;;;;;;;;5087177;28;24405;-46
2022/08/06 09:09:48;;;;;;;0.60;0.60;;;;;;;;;;5087462;28;24867;-46
2022/08/06 09:12:13;;;;;;;1.50;0.90;;;;;;;;;;5087213;28;24967;-46
2022/08/06 09:14:43;;;;;;;1.40;0.80;;;;;;;;;;5087496;28;24771;-45
2022/08/06 09:17:08;;;;;;;1.00;0.80;;;;;;;;;;5087099;28;24445;-45
2022/08/06 09:19:33;;;;;;;0.80;0.70;;;;;;;;;;5087616;28;24495;-44
2022/08/06 09:21:59;;;;;;;0.90;0.70;;;;;;;;;;5087352;28;24937;-47
2022/08/06 09:24:24;;;;;;;1.00;0.80;;;;;;;;;;5086725;28;24394;-46
2022/08/06 09:27:09;;;;;;;0.73;0.73;;;;;;;;;;5085254;28;24401;-44
2022/08/06 09:29:34;;;;;;;0.63;0.60;;;;;;;;;;5087401;28;24471;-46
2022/08/06 09:32:00;;;;;;;0.90;0.90;;;;;;;;;;5087155;28;24944;-45
2022/08/06 09:34:32;;;;;;;1.80;1.00;;;;;;;;;;5086820;28;24803;-45
2022/08/06 09:36:57;;;;;;;0.90;0.90;;;;;;;;;;5086720;28;24398;-46
2022/08/06 09:39:31;;;;;;;1.13;0.60;;;;;;;;;;5086912;28;24405;-47
2022/08/06 09:41:57;;;;;;;1.10;0.70;;;;;;;;;;5086815;28;24943;-46
2022/08/06 09:44:22;;;;;;;1.00;0.80;;;;;;;;;;5086625;28;24456;-46
2022/08/06 09:46:49;;;;;;;0.73;0.70;;;;;;;;;;5086562;28;24440;-46
2022/08/06 09:49:16;;;;;;;1.10;0.70;;;;;;;;;;5086621;28;24769;-45
2022/08/06 09:51:41;;;;;;;1.40;0.70;;;;;;;;;;5086579;28;24948;-45
2022/08/06 09:54:08;;;;;;;0.70;0.70;;;;;;;;;;5086469;28;24425;-45
2022/08/06 09:56:34;;;;;;;1.65;0.80;;;;;;;;;;5086459;28;24397;-45
2022/08/06 09:59:01;;;;;;;1.20;0.80;;;;;;;;;;5086938;28;24465;-45
2022/08/06 10:01:26;;;;;;;1.80;0.80;;;;;;;;;;5090763;28;25152;-45
2022/08/06 10:03:52;;;;;;;2.37;0.70;;;;;;;;;;5090862;28;24436;-46
2022/08/06 10:06:20;;;;;;;1.17;0.70;;;;;;;;;;5090943;28;24390;-45
2022/08/06 10:08:46;;;;;;;1.30;0.80;;;;;;;;;;5091214;28;24410;-46
2022/08/06 10:11:11;;;;;;;1.60;0.70;;;;;;;;;;5090660;28;24390;-46
2022/08/06 10:13:38;;;;;;;0.93;0.70;;;;;;;;;;5090669;28;24943;-45
2022/08/06 10:16:19;;;;;;;1.30;0.60;;;;;;;;;;5090443;28;24461;-47
2022/08/06 10:18:49;;;;;;;0.70;0.70;;;;;;;;;;5090436;28;24392;-45
2022/08/06 10:21:16;;;;;;;0.70;0.70;;;;;;;;;;5090361;28;24378;-45
2022/08/06 10:23:43;;;;;;;1.90;0.90;;;;;;;;;;5090497;28;24397;-45
2022/08/06 10:26:10;;;;;;;0.80;0.80;;;;;;;;;;5088147;28;24932;-45
2022/08/06 10:28:36;;;;;;;1.20;0.80;;;;;;;;;;5090194;28;25038;-44
2022/08/06 10:31:06;;;;;;;2.10;0.70;;;;;;;;;;5090198;28;24527;-44
2022/08/06 10:33:33;;;;;;;1.10;0.70;;;;;;;;;;5090144;28;24703;-46
2022/08/06 10:36:02;;;;;;;1.35;0.77;;;;;;;;;;5089921;28;24394;-44
2022/08/06 10:38:28;;;;;;;0.80;0.80;;;;;;;;;;5090722;28;24406;-44
2022/08/06 10:40:53;;;;;;;0.90;0.80;;;;;;;;;;5090125;28;24386;-44
2022/08/06 10:43:19;;;;;;;2.17;1.00;;;;;;;;;;5089676;28;24493;-45
2022/08/06 10:45:44;;;;;;;0.90;0.65;;;;;;;;;;5090000;28;24398;-46
2022/08/06 10:48:10;;;;;;;0.85;0.80;;;;;;;;;;5089639;28;24418;-45
2022/08/06 10:50:37;;;;;;;0.90;0.80;;;;;;;;;;5089701;28;24406;-46
2022/08/06 10:53:02;;;;;;;1.42;0.90;;;;;;;;;;5089716;28;24422;-45
2022/08/06 10:55:29;;;;;;;1.07;0.80;;;;;;;;;;5089128;28;24404;-45
2022/08/06 10:57:54;;;;;;;1.48;0.90;;;;;;;;;;5089888;28;24378;-45
2022/08/06 11:00:19;;;;;;;1.13;0.80;;;;;;;;;;5089528;28;24943;-45
2022/08/06 11:02:55;;;;;;;1.00;0.90;;;;;;;;;;5089784;28;24390;-46
2022/08/06 11:05:23;;;;;;;0.82;0.70;;;;;;;;;;5089265;28;24447;-46
2022/08/06 11:08:02;;;;;;;0.90;0.60;;;;;;;;;;5089766;28;24398;-45
2022/08/06 11:10:37;;;;;;;1.60;0.80;;;;;;;;;;5088889;28;25016;-45
2022/08/06 11:13:18;;;;;;;0.75;0.68;;;;;;;;;;5089289;28;24779;-45
2022/08/06 11:15:44;;;;;;;0.90;0.70;;;;;;;;;;5088713;28;24397;-45
2022/08/06 11:18:10;;;;;;;0.90;0.70;;;;;;;;;;5089523;28;24387;-45
2022/08/06 11:20:42;;;;;;;1.30;0.70;;;;;;;;;;5089447;28;24418;-44
2022/08/06 11:23:13;;;;;;;0.85;0.60;;;;;;;;;;5089057;28;24401;-46
2022/08/06 11:25:38;;;;;;;1.48;0.80;;;;;;;;;;5089386;28;24391;-45
2022/08/06 11:28:04;;;;;;;1.98;0.80;;;;;;;;;;5089102;28;24493;-45
2022/08/06 11:30:40;;;;;;;0.90;0.70;;;;;;;;;;5088887;28;24498;-46
2022/08/06 11:33:05;;;;;;;1.15;0.85;;;;;;;;;;5088973;28;24418;-46
2022/08/06 11:35:37;;;;;;;0.90;0.70;;;;;;;;;;5089061;28;24749;-46
2022/08/06 11:38:04;;;;;;;0.60;0.60;;;;;;;;;;5089016;28;24387;-46
2022/08/06 11:40:48;;;;;;;1.30;0.60;;;;;;;;;;5088937;28;24462;-46
2022/08/06 11:43:33;;;;;;;0.80;0.60;;;;;;;;;;5088709;28;24390;-45
2022/08/06 11:46:17;;;;;;;1.00;0.70;;;;;;;;;;5088367;28;24418;-46
2022/08/06 11:49:03;;;;;;;1.77;0.67;;;;;;;;;;5088705;28;24956;-45
2022/08/06 11:51:45;;;;;;;1.10;0.70;;;;;;;;;;5081460;28;24414;-45
2022/08/06 11:54:15;;;;;;;0.90;0.80;;;;;;;;;;5067536;28;25075;-46
2022/08/06 11:57:03;;;;;;;1.40;0.90;;;;;;;;;;5067334;28;24858;-45
2022/08/06 11:59:30;;;;;;;1.60;0.90;;;;;;;;;;5082571;28;24509;-46
2022/08/06 12:01:56;;;;;;;0.90;0.70;;;;;;;;;;5075230;28;24418;-46
2022/08/06 12:04:40;;;;;;;0.60;0.60;;;;;;;;;;5076345;28;24476;-45
2022/08/06 12:07:17;;;;;;;0.75;0.70;;;;;;;;;;5085382;28;24400;-46
2022/08/06 12:09:57;;;;;;;1.38;0.80;;;;;;;;;;5078213;28;25097;-45
2022/08/06 12:12:27;;;;;;;0.70;0.50;;;;;;;;;;5079231;28;24567;-46
2022/08/06 12:14:52;;;;;;;1.00;0.80;;;;;;;;;;5065344;28;24509;-45
2022/08/06 12:17:20;;;;;;;0.90;0.90;;;;;;;;;;5068602;28;24568;-45
2022/08/06 12:19:46;;;;;;;1.07;0.60;;;;;;;;;;5074472;28;25006;-46
2022/08/06 12:22:13;;;;;;;0.82;0.70;;;;;;;;;;5074814;28;24419;-46
2022/08/06 12:24:38;;;;;;;1.17;0.60;;;;;;;;;;5069920;28;24498;-45
2022/08/06 12:27:06;;;;;;;1.20;0.80;;;;;;;;;;5072851;28;24756;-46
2022/08/06 12:29:32;;;;;;;2.90;0.80;;;;;;;;;;5076095;28;24509;-46
2022/08/06 12:31:57;;;;;;;1.90;0.80;;;;;;;;;;5070273;28;24525;-45
2022/08/06 12:34:24;;;;;;;2.05;0.80;;;;;;;;;;5081997;28;24426;-45
2022/08/06 12:36:49;;;;;;;0.82;0.70;;;;;;;;;;5073654;28;24480;-46
2022/08/06 12:39:15;;;;;;;0.77;0.70;;;;;;;;;;5081705;28;24434;-47
2022/08/06 12:41:41;;;;;;;0.70;0.70;;;;;;;;;;5077084;28;24825;-46
2022/08/06 12:44:06;;;;;;;0.93;0.80;;;;;;;;;;5082311;28;25004;-45
2022/08/06 12:46:31;;;;;;;1.20;0.70;;;;;;;;;;5070333;28;24534;-46
2022/08/06 12:48:57;;;;;;;0.80;0.70;;;;;;;;;;5067049;28;24422;-45
2022/08/06 12:51:22;;;;;;;1.60;0.80;;;;;;;;;;5077534;28;24430;-44
2022/08/06 12:53:47;;;;;;;0.70;0.70;;;;;;;;;;5081712;28;24533;-45
2022/08/06 12:56:13;;;;;;;1.10;0.50;;;;;;;;;;5083687;28;24378;-45
2022/08/06 12:58:39;;;;;;;0.80;0.80;;;;;;;;;;5073315;28;24995;-44
2022/08/06 13:01:05;;;;;;;1.10;0.80;;;;;;;;;;5065265;28;24825;-46
2022/08/06 13:03:31;;;;;;;1.17;0.90;;;;;;;;;;5074988;28;25069;-45
2022/08/06 13:05:58;;;;;;;0.75;0.52;;;;;;;;;;5064100;28;24487;-45
2022/08/06 13:08:24;;;;;;;0.70;0.60;;;;;;;;;;5084055;28;24413;-46
2022/08/06 13:10:50;;;;;;;1.20;0.67;;;;;;;;;;5075841;28;24998;-44
2022/08/06 13:13:15;;;;;;;1.80;0.80;;;;;;;;;;5082465;28;24438;-44
2022/08/06 13:15:40;;;;;;;0.80;0.80;;;;;;;;;;5084490;28;24418;-44
2022/08/06 13:18:10;;;;;;;1.05;0.70;;;;;;;;;;5066865;28;24422;-45
2022/08/06 13:20:40;;;;;;;0.60;0.50;;;;;;;;;;5069872;28;24518;-45
2022/08/06 13:23:05;;;;;;;0.68;0.52;;;;;;;;;;5077362;28;24433;-44
2022/08/06 13:25:39;;;;;;;0.60;0.60;;;;;;;;;;5076089;28;24419;-44
2022/08/06 13:28:09;;;;;;;1.90;0.80;;;;;;;;;;5068075;28;24440;-44
2022/08/06 13:30:34;;;;;;;0.80;0.60;;;;;;;;;;5075995;28;24421;-45
2022/08/06 13:33:13;;;;;;;1.50;0.60;;;;;;;;;;5072134;28;24427;-44
2022/08/06 13:35:38;;;;;;;0.70;0.60;;;;;;;;;;5080437;28;25034;-45
2022/08/06 13:38:03;;;;;;;0.68;0.50;;;;;;;;;;5072326;28;24410;-45
2022/08/06 13:40:36;;;;;;;0.70;0.70;;;;;;;;;;5081692;28;24995;-45
2022/08/06 13:43:01;;;;;;;1.00;0.75;;;;;;;;;;5068108;28;24458;-45
2022/08/06 13:45:28;;;;;;;1.40;0.70;;;;;;;;;;5081346;28;25051;-45
2022/08/06 13:48:03;;;;;;;1.10;0.70;;;;;;;;;;5071066;28;24489;-45
2022/08/06 13:50:28;;;;;;;1.43;0.60;;;;;;;;;;5075429;28;24552;-45
2022/08/06 13:52:54;;;;;;;1.40;0.80;;;;;;;;;;5067807;28;24537;-45
2022/08/06 13:55:25;;;;;;;1.00;0.67;;;;;;;;;;5069553;28;24402;-45
2022/08/06 13:57:51;;;;;;;0.68;0.57;;;;;;;;;;5060966;28;24476;-45
2022/08/06 14:00:16;;;;;;;1.03;0.70;;;;;;;;;;5083242;28;24844;-45
2022/08/06 14:02:41;;;;;;;0.65;0.65;;;;;;;;;;5083417;28;24839;-46
2022/08/06 14:05:07;;;;;;;1.40;0.70;;;;;;;;;;5079314;28;24422;-46
2022/08/06 14:07:32;;;;;;;2.00;1.10;;;;;;;;;;5077941;28;24459;-46
2022/08/06 14:09:57;;;;;;;0.85;0.60;;;;;;;;;;5077721;28;24565;-45
2022/08/06 14:12:22;;;;;;;0.60;0.60;;;;;;;;;;5064565;28;25070;-46
2022/08/06 14:14:49;;;;;;;2.13;0.80;;;;;;;;;;5064990;28;24419;-46
2022/08/06 14:17:14;;;;;;;0.70;0.70;;;;;;;;;;5073615;28;24423;-45
2022/08/06 14:19:40;;;;;;;1.10;0.80;;;;;;;;;;5064198;28;25157;-45
2022/08/06 14:22:05;;;;;;;1.00;0.80;;;;;;;;;;5066513;28;24524;-45
2022/08/06 14:24:30;;;;;;;1.00;0.80;;;;;;;;;;5065877;28;24731;-45
2022/08/06 14:26:56;;;;;;;1.50;1.40;;;;;;;;;;5065892;28;24399;-46
2022/08/06 14:29:21;;;;;;;2.22;2.03;;;;;;;;;;5073442;28;24430;-45
2022/08/06 14:31:46;;;;;;;1.90;1.80;;;;;;;;;;5070245;28;24437;-45
2022/08/06 14:34:11;;;;;;;1.73;1.20;;;;;;;;;;5083084;28;24505;-45
2022/08/06 14:36:37;;;;;;;1.67;1.43;;;;;;;;;;5083573;28;24453;-45
2022/08/06 14:39:02;;;;;;;1.73;1.60;;;;;;;;;;5076630;28;25232;-45
2022/08/06 14:46:55;;;;;;;1.10;0.82;;;;;;;;;;5077220;28;24488;-47
2022/08/06 14:49:20;;;;;;;1.00;0.90;;;;;;;;;;5080947;28;24828;-46
2022/08/06 14:51:46;;;;;;;1.60;0.70;;;;;;;;;;5088509;28;24485;-46
2022/08/06 14:54:11;;;;;;;0.93;0.93;;;;;;;;;;5079790;28;24510;-46